Watertown, SD

3:29 AM CDT on October 26, 2014 (GMT -0500)
Turkey Ridge | Change Station
CLOSE
Current Station
Personal Weather Station
Location: Watertown, SD
Elevation: 1795 ft
Nearby Weather Stations

Elev 1795 ft 44.91 °N, 97.08 °W | Updated 9 minutes ago

Clear
Clear
43.3 °F
Feels Like 41 °F
N
4.0
Wind Variable Wind from ESE
Gusts 6.0 mph

Today
High -- | Low -- °F
--% Chance of Precip.
Yesterday
High -- | Low -- °F
Precip. -- in
7:58 AM 6:25 PM
Waxing Crescent, 6% visible
Pressure 29.97 in
Visibility 10.0 miles
Clouds Clear
Windchill 41 °F
Dew Point 31 °F
Humidity 61%
Rainfall 0.00 in
Snow Depth Not available.
UV 0 out of 12
Pollen 1.60 out of 12
Air Quality Not available.
Flu Activity Sporadic
METAR KATY 260753Z AUTO 15006KT 10SM CLR 06/M02 A2995 RMK AO2 SLP147 T00561017 $

More Conditions Fewer Conditions

Pressure 29.97 in
Visibility 10.0 miles
Clouds Clear
Windchill 41 °F
Dew Point 31 °F
Humidity 61%
Rainfall 0.00 in
Snow Depth Not available.
UV 0 out of 12
Pollen 1.60 out of 12
Air Quality Not available.
Flu Activity Sporadic
METAR KATY 260753Z AUTO 15006KT 10SM CLR 06/M02 A2995 RMK AO2 SLP147 T00561017 $

More Conditions Fewer Conditions

10-Day Weather Forecast

Almanac

Astronomy

Oct. 26, 2014 Rise Set
Actual Time 7:58 AM CDT 6:25 PM CDT
Civil Twilight 7:28 AM CDT 6:55 PM CDT
Nautical Twilight 6:54 AM CDT 7:29 PM CDT
Astronomical Twilight 6:20 AM CDT 8:03 PM CDT
Moon 10:42 AM CDT 8:33 PM CDT
Length of Visible Light 11h 27m
Length of Day
10h 26m
Tomorrow will be 2m 53s shorter.
Waxing Crescent, 6% of the Moon is Illuminated
Today
Waxing Crescent
Oct 30
First Quarter
Nov 6
Full
Nov 14
Last Quarter
Nov 22
New

Today's Extremes

State Highs State Lows

Community

WunderPhotos

Upload Photos

1,765,125 photos uploaded!

Nearby

Snow Depth

Station Depth Elevation
Blind Park 0 in 6890 ft

Earthquake Activity

City Distance Mag. Time & Date
No recent earthquake activity has been reported nearby.
Minimum magnitude displayed is 2.5.

Coastal Water Temperatures

Place Temperature
No Stations Reporting

Nearby Weather Stations